Airfield :
LOGIN :

Register | Disclaimer

   EN    FR    IT 

 










Legend :    VFR   Marginal VFR   IFR   Intensive IFR   Very Intensive IFR
Visi :
Ceiling :
>= 8 km
>= 3000ft
5 to 8 km
1000 to 3000 ft
1500m to 5 km
500 to 1000 ft
800 to 1500m
200 to 500 ft
< 800m
< 200 ft
Symbols :   Thunderstorms  Fog  Heavy snow  Heavy precipitations  Wind > 20 kt
SIGMETs :     Misc.  Thunderstorms  Icing  Turbulence  Mountain Waves  Volcanic Ashes







- Airport Elevation : 256 ft
- IATA code : CFR
- Download approach charts


LFRK - Caen

CURRENT METAR :
  • 250630Z AUTO 10004KT CAVOK 16/13 Q1023 NOSIG

EXPIRED METARs :
  • 250600Z AUTO VRB01KT CAVOK 14/13 Q1023 TEMPO 4000 BR
  • 250530Z AUTO 00000KT 6000 NSC 12/12 Q1023 TEMPO 4000 BR
  • 250500Z AUTO 32001KT 3300 BR NSC 11/11 Q1023
  • 250430Z AUTO 31002KT 4400 BR NSC 10/09 Q1023
  • 250400Z AUTO 29002KT 3700 R31/1000U BR NSC 10/09 Q1023

TAF TAF LFRK
Valid from the 25 at 06:00 until the 25 at 15:00 UTC


250500Z 2506/2515 09006KT CAVOK
PROB30
TEMPO 2506/2507 4000 BR NSC
BECMG 2510/2512 09010KT
Met : +33 2 31 26 68 11
No reported NOTAMs for that airfield.



MET'MAP, your aeronautical weather chart ! - Copyright ORBIFLY December 2007 - Disclaimer

ORBIFLY MET'MAP TEAM :

Programming & Development : Alexandra Zaïnal
Concept & Development : Baudouin d'Aumeries
Co-Development & Prog : Marc-Olivier Méhu
Technical & hardware support : Manuel Goepfert

Contact : metmap@orbifly.com




SOURCES & CREDITS :

   NOAA